DIRECCIÓN GENERAL DE AERONÁUTICA CIVIL
DIRECCIÓN METEOROLÓGICA DE CHILE
INFORMACIÓN METAR Y TAF

FIR SANTIAGO

Estación: SCSE
METAR SCSE 020200Z 26003KT 9999 OVC013 12/10 Q1015=

TAF SCSE 012220Z 0200/0224 30005KT 9999 SCT010 OVC013 TX12/0218Z TN09/0210Z BECMG 0201/0203 14005KT TEMPO 0208/0212 VRB02KT 6000 -DZ BKN010 BECMG 0214/0216 28008KT SCT015 BKN020 BECMG 0219/0221 SCT025=

Estación: SCER
METAR SCER 161100Z 00000KT 7000 OVC014 12/10 Q1015=

TAF SCER NIL=

Estación: SCRD
METAR SCRD 012200Z 30002KT 0200 FG VV000 08/08 Q1014=

TAF AMD SCRD 011913Z 0120/0124 31005KT 0600 FG VV001 TX11/0118Z TN09/ 0112Z BECMG 0122/0124 2000 BR BKN005=

Estación: SCVM
METAR SCVM 020200Z 00000KT 5000 BR OVC006 09/08 Q1015=

TAF SCVM 012220Z 0200/0224 30005KT 2000 BR BKN004 TX12/0218Z TN07/ 0210Z TEMPO 0206/0212 14005KT 4000 BR OVC010 BECMG 0214/0216 30008KT 7000 BKN015 BECMG 0218/0220 33008KT 9999 SCT015 BKN030=

Estación: SCTB
METAR SCTB 012200Z 00000KT 4000 HZ FEW060 BKN210 13/02 Q1014=

TAF AMD SCTB 011914Z 0120/0124 00000KT 4000 HZ FEW100 BKN220 TX18/ 0118Z TN06/0112Z=

Estación: SCEL
METAR SCEL 020100Z 15003KT 110V180 6000 FEW180 BKN220 10/05 Q1014 NOSIG=

TAF SCEL 012220Z 0200/0224 15005KT 7000 NSC TX12/0218Z TN04/0210Z BECMG 0204/0206 VRB02KT 4000 HZ SCT180 TEMPO 0208/0212 35005KT 0800 BCFG BKN003 BECMG 0214/0216 17008KT 7000 BKN180 BECMG 0218/0220 9999 SCT080 BKN120 TEMPO 0221/0224 8000 -SHRA SCT040 BKN100=

Estación: SCSN
SPECI SCSN 020143Z AUTO 08002KT 7000 BR OVC010 08/07 Q1015=

TAF AMD SCSN 011638Z 0117/0124 19005KT 0800 FG OVC003 TX10/0118Z TN07 /0112Z BECMG 0119/0121 23005KT 2000 BR BKN005 BECMG 0122/0124 VRB02KT 5000 HZ BKN008=

Estación: SCRG
METAR SCRG 012100Z 21007KT 4000 HZ BKN120 12/06 Q1013=

TAF AMD SCRG 011437Z 0115/0124 00000KT 2000 BR SCT120 TX12/0118Z TN05 /0112Z BECMG 0116/0118 4000 HZ BKN150 BECMG 0119/0121 20008KT 7000 SCT150=

Estación: SCIC
SPECI SCIC 020120Z AUTO VRB02KT 0100 R/////// FG VV001 05/05 Q1014=

TAF AMD SCIC 011308Z 0114/0124 20005KT 8000 OVC003 TX10/0118Z TN05/ 0112Z TEMPO 0113/0115 VRB02KT 5000 BR BKN005 BECMG 0118/0120 CAVOK=

Estación: SCCH
METAR SCCH 012200Z 06004KT 0500 FG VV001 04/04 Q1014=

TAF AMD SCCH 011916Z 0120/0124 08003KT 0800 FG VV001 TX05/0119Z TN04/ 0112Z BECMG 0122/0124 3000 BR NSC=

Estación: SCIE
METAR SCIE 020200Z 15003KT 5000 BR NSC 05/04 Q1015=

TAF SCIE 012220Z 0200/0224 22005KT CAVOK TX10/0218Z TN04/0210Z BECMG 0204/0206 15005KT 5000 BR NSC BECMG 0206/0208 VRB02KT 3000 BR SCT005 TEMPO 0208/0213 01005KT 0800 BCFG BKN003 BECMG 0213/0215 7000 BKN010 BECMG 0216/0218 36010KT 9999 SCT010 BKN015=

Estación: SCGE
METAR SCGE 012200Z 00000KT CAVOK 09/02 Q1015=

TAF SCGE 011040Z 0112/0124 18005KT CAVOK TX11/0118Z TN03/0112Z TEMPO 0112/0116 4000 BR BKN008=


Volver